sensor_id;sensor_type;location;lat;lon;timestamp;P1;durP1;ratioP1;P2;durP2;ratioP2
72621;SDS011;60665;53.506;9.582;2023-05-28T00:02:21;8.20;;;2.80;;
72621;SDS011;60665;53.506;9.582;2023-05-28T00:04:46;6.65;;;2.58;;
72621;SDS011;60665;53.506;9.582;2023-05-28T00:07:11;9.25;;;2.67;;
72621;SDS011;60665;53.506;9.582;2023-05-28T00:09:37;7.35;;;2.53;;
72621;SDS011;60665;53.506;9.582;2023-05-28T00:12:02;9.43;;;2.85;;
72621;SDS011;60665;53.506;9.582;2023-05-28T00:14:28;7.70;;;2.60;;
72621;SDS011;60665;53.506;9.582;2023-05-28T00:16:54;6.43;;;2.63;;
72621;SDS011;60665;53.506;9.582;2023-05-28T00:19:20;6.68;;;2.53;;
72621;SDS011;60665;53.506;9.582;2023-05-28T00:21:47;8.63;;;2.70;;
72621;SDS011;60665;53.506;9.582;2023-05-28T00:24:12;7.97;;;2.92;;
72621;SDS011;60665;53.506;9.582;2023-05-28T00:26:37;6.70;;;2.40;;
72621;SDS011;60665;53.506;9.582;2023-05-28T00:29:03;6.03;;;2.33;;
72621;SDS011;60665;53.506;9.582;2023-05-28T00:31:28;7.57;;;2.58;;
72621;SDS011;60665;53.506;9.582;2023-05-28T00:33:54;6.40;;;2.72;;
72621;SDS011;60665;53.506;9.582;2023-05-28T00:36:21;6.40;;;2.75;;
72621;SDS011;60665;53.506;9.582;2023-05-28T00:38:47;8.23;;;2.53;;
72621;SDS011;60665;53.506;9.582;2023-05-28T00:41:13;6.95;;;2.80;;
72621;SDS011;60665;53.506;9.582;2023-05-28T00:43:38;6.68;;;2.50;;
72621;SDS011;60665;53.506;9.582;2023-05-28T00:46:03;7.55;;;2.70;;
72621;SDS011;60665;53.506;9.582;2023-05-28T00:48:31;9.57;;;2.95;;
72621;SDS011;60665;53.506;9.582;2023-05-28T00:50:57;8.35;;;3.05;;
72621;SDS011;60665;53.506;9.582;2023-05-28T00:53:23;6.78;;;2.85;;
72621;SDS011;60665;53.506;9.582;2023-05-28T00:55:49;6.78;;;2.65;;
72621;SDS011;60665;53.506;9.582;2023-05-28T00:58:14;7.75;;;2.72;;
72621;SDS011;60665;53.506;9.582;2023-05-28T01:00:41;8.63;;;2.83;;
72621;SDS011;60665;53.506;9.582;2023-05-28T01:03:08;6.70;;;2.30;;
72621;SDS011;60665;53.506;9.582;2023-05-28T01:05:34;6.25;;;2.60;;
72621;SDS011;60665;53.506;9.582;2023-05-28T01:08:03;8.60;;;2.90;;
72621;SDS011;60665;53.506;9.582;2023-05-28T01:10:30;5.35;;;2.35;;
72621;SDS011;60665;53.506;9.582;2023-05-28T01:12:56;7.38;;;2.53;;
72621;SDS011;60665;53.506;9.582;2023-05-28T01:15:24;6.63;;;2.60;;
72621;SDS011;60665;53.506;9.582;2023-05-28T01:17:50;7.57;;;2.92;;
72621;SDS011;60665;53.506;9.582;2023-05-28T01:20:17;6.50;;;2.60;;
72621;SDS011;60665;53.506;9.582;2023-05-28T01:22:45;6.85;;;2.67;;
72621;SDS011;60665;53.506;9.582;2023-05-28T01:25:11;5.95;;;2.55;;
72621;SDS011;60665;53.506;9.582;2023-05-28T01:27:40;13.18;;;2.78;;
72621;SDS011;60665;53.506;9.582;2023-05-28T01:30:08;9.18;;;2.97;;
72621;SDS011;60665;53.506;9.582;2023-05-28T01:32:35;8.30;;;3.63;;
72621;SDS011;60665;53.506;9.582;2023-05-28T01:35:01;9.07;;;2.78;;
72621;SDS011;60665;53.506;9.582;2023-05-28T01:37:28;8.60;;;2.92;;
72621;SDS011;60665;53.506;9.582;2023-05-28T01:39:54;8.60;;;3.13;;
72621;SDS011;60665;53.506;9.582;2023-05-28T01:42:19;7.90;;;3.00;;
72621;SDS011;60665;53.506;9.582;2023-05-28T01:44:45;7.05;;;3.13;;
72621;SDS011;60665;53.506;9.582;2023-05-28T01:47:11;9.70;;;3.30;;
72621;SDS011;60665;53.506;9.582;2023-05-28T01:49:37;6.70;;;2.78;;
72621;SDS011;60665;53.506;9.582;2023-05-28T01:52:04;7.72;;;2.72;;
72621;SDS011;60665;53.506;9.582;2023-05-28T01:54:29;7.40;;;3.05;;
72621;SDS011;60665;53.506;9.582;2023-05-28T01:56:55;8.18;;;3.08;;
72621;SDS011;60665;53.506;9.582;2023-05-28T01:59:20;8.02;;;3.00;;
72621;SDS011;60665;53.506;9.582;2023-05-28T02:01:46;7.43;;;2.67;;
72621;SDS011;60665;53.506;9.582;2023-05-28T02:04:11;6.03;;;2.50;;
72621;SDS011;60665;53.506;9.582;2023-05-28T02:06:37;6.53;;;2.30;;
72621;SDS011;60665;53.506;9.582;2023-05-28T02:09:03;6.85;;;2.72;;
72621;SDS011;60665;53.506;9.582;2023-05-28T02:11:28;6.00;;;2.38;;
72621;SDS011;60665;53.506;9.582;2023-05-28T02:13:54;6.82;;;2.72;;
72621;SDS011;60665;53.506;9.582;2023-05-28T02:16:19;7.57;;;2.70;;
72621;SDS011;60665;53.506;9.582;2023-05-28T02:18:45;7.22;;;2.38;;
72621;SDS011;60665;53.506;9.582;2023-05-28T02:21:12;7.50;;;2.65;;
72621;SDS011;60665;53.506;9.582;2023-05-28T02:23:43;6.25;;;2.25;;
72621;SDS011;60665;53.506;9.582;2023-05-28T02:26:10;5.75;;;2.13;;
72621;SDS011;60665;53.506;9.582;2023-05-28T02:28:36;6.25;;;2.40;;
72621;SDS011;60665;53.506;9.582;2023-05-28T02:31:01;7.90;;;2.67;;
72621;SDS011;60665;53.506;9.582;2023-05-28T02:33:27;7.65;;;2.78;;
72621;SDS011;60665;53.506;9.582;2023-05-28T02:35:53;7.97;;;2.20;;
72621;SDS011;60665;53.506;9.582;2023-05-28T02:38:18;7.00;;;2.22;;
72621;SDS011;60665;53.506;9.582;2023-05-28T02:40:44;5.97;;;2.30;;
72621;SDS011;60665;53.506;9.582;2023-05-28T02:43:09;6.47;;;2.30;;
72621;SDS011;60665;53.506;9.582;2023-05-28T02:45:35;5.72;;;2.47;;
72621;SDS011;60665;53.506;9.582;2023-05-28T02:48:00;8.55;;;2.67;;
72621;SDS011;60665;53.506;9.582;2023-05-28T02:50:26;6.55;;;2.85;;
72621;SDS011;60665;53.506;9.582;2023-05-28T02:52:51;4.80;;;2.20;;
72621;SDS011;60665;53.506;9.582;2023-05-28T02:55:16;6.97;;;2.85;;
72621;SDS011;60665;53.506;9.582;2023-05-28T02:57:42;9.32;;;3.40;;
72621;SDS011;60665;53.506;9.582;2023-05-28T03:00:07;13.77;;;3.92;;
72621;SDS011;60665;53.506;9.582;2023-05-28T03:02:34;6.88;;;2.75;;
72621;SDS011;60665;53.506;9.582;2023-05-28T03:05:00;9.43;;;2.95;;
72621;SDS011;60665;53.506;9.582;2023-05-28T03:07:30;9.75;;;3.28;;
72621;SDS011;60665;53.506;9.582;2023-05-28T03:09:56;6.45;;;2.70;;
72621;SDS011;60665;53.506;9.582;2023-05-28T03:12:22;7.75;;;2.80;;
72621;SDS011;60665;53.506;9.582;2023-05-28T03:14:48;6.22;;;2.50;;
72621;SDS011;60665;53.506;9.582;2023-05-28T03:17:13;9.27;;;2.78;;
72621;SDS011;60665;53.506;9.582;2023-05-28T03:19:39;9.63;;;2.75;;
72621;SDS011;60665;53.506;9.582;2023-05-28T03:22:04;6.50;;;2.33;;
72621;SDS011;60665;53.506;9.582;2023-05-28T03:24:30;7.22;;;2.92;;
72621;SDS011;60665;53.506;9.582;2023-05-28T03:26:56;8.18;;;2.70;;
72621;SDS011;60665;53.506;9.582;2023-05-28T03:29:23;6.18;;;2.60;;
72621;SDS011;60665;53.506;9.582;2023-05-28T03:31:48;6.85;;;2.75;;
72621;SDS011;60665;53.506;9.582;2023-05-28T03:34:13;7.15;;;2.60;;
72621;SDS011;60665;53.506;9.582;2023-05-28T03:36:39;6.95;;;2.97;;
72621;SDS011;60665;53.506;9.582;2023-05-28T03:39:05;6.65;;;2.83;;
72621;SDS011;60665;53.506;9.582;2023-05-28T03:41:32;6.65;;;2.55;;
72621;SDS011;60665;53.506;9.582;2023-05-28T03:43:57;7.10;;;2.95;;
72621;SDS011;60665;53.506;9.582;2023-05-28T03:46:23;9.65;;;2.65;;
72621;SDS011;60665;53.506;9.582;2023-05-28T03:48:48;8.32;;;3.03;;
72621;SDS011;60665;53.506;9.582;2023-05-28T03:51:13;7.30;;;2.80;;
72621;SDS011;60665;53.506;9.582;2023-05-28T03:53:39;8.60;;;2.97;;
72621;SDS011;60665;53.506;9.582;2023-05-28T03:56:04;8.70;;;2.97;;
72621;SDS011;60665;53.506;9.582;2023-05-28T03:58:30;7.50;;;3.05;;
72621;SDS011;60665;53.506;9.582;2023-05-28T04:00:56;10.00;;;2.90;;
72621;SDS011;60665;53.506;9.582;2023-05-28T04:03:21;5.65;;;2.50;;
72621;SDS011;60665;53.506;9.582;2023-05-28T04:05:47;5.93;;;2.63;;
72621;SDS011;60665;53.506;9.582;2023-05-28T04:08:12;8.20;;;3.22;;
72621;SDS011;60665;53.506;9.582;2023-05-28T04:10:37;8.52;;;3.10;;
72621;SDS011;60665;53.506;9.582;2023-05-28T04:13:03;8.60;;;3.08;;
72621;SDS011;60665;53.506;9.582;2023-05-28T04:15:28;9.02;;;3.70;;
72621;SDS011;60665;53.506;9.582;2023-05-28T04:17:54;9.40;;;4.15;;
72621;SDS011;60665;53.506;9.582;2023-05-28T04:20:19;11.77;;;4.28;;
72621;SDS011;60665;53.506;9.582;2023-05-28T04:22:45;15.50;;;5.03;;
72621;SDS011;60665;53.506;9.582;2023-05-28T04:25:12;18.02;;;5.25;;
72621;SDS011;60665;53.506;9.582;2023-05-28T04:27:37;15.25;;;6.15;;
72621;SDS011;60665;53.506;9.582;2023-05-28T04:30:03;15.90;;;4.88;;
72621;SDS011;60665;53.506;9.582;2023-05-28T04:32:28;14.77;;;5.10;;
72621;SDS011;60665;53.506;9.582;2023-05-28T04:34:56;16.38;;;5.85;;
72621;SDS011;60665;53.506;9.582;2023-05-28T04:37:21;15.88;;;5.25;;
72621;SDS011;60665;53.506;9.582;2023-05-28T04:39:47;9.80;;;4.75;;
72621;SDS011;60665;53.506;9.582;2023-05-28T04:42:13;17.42;;;5.75;;
72621;SDS011;60665;53.506;9.582;2023-05-28T04:44:42;15.68;;;5.43;;
72621;SDS011;60665;53.506;9.582;2023-05-28T04:47:08;13.55;;;5.28;;
72621;SDS011;60665;53.506;9.582;2023-05-28T04:49:34;14.98;;;5.05;;
72621;SDS011;60665;53.506;9.582;2023-05-28T04:51:59;14.20;;;5.38;;
72621;SDS011;60665;53.506;9.582;2023-05-28T04:54:24;17.35;;;5.22;;
72621;SDS011;60665;53.506;9.582;2023-05-28T04:56:51;15.80;;;5.65;;
72621;SDS011;60665;53.506;9.582;2023-05-28T04:59:17;15.27;;;5.53;;
72621;SDS011;60665;53.506;9.582;2023-05-28T05:01:43;15.95;;;5.07;;
72621;SDS011;60665;53.506;9.582;2023-05-28T05:04:08;14.57;;;5.38;;
72621;SDS011;60665;53.506;9.582;2023-05-28T05:06:37;14.05;;;4.95;;
72621;SDS011;60665;53.506;9.582;2023-05-28T05:09:02;17.63;;;5.43;;
72621;SDS011;60665;53.506;9.582;2023-05-28T05:11:31;14.63;;;5.28;;
72621;SDS011;60665;53.506;9.582;2023-05-28T05:13:56;13.80;;;4.88;;
72621;SDS011;60665;53.506;9.582;2023-05-28T05:16:22;18.75;;;6.10;;
72621;SDS011;60665;53.506;9.582;2023-05-28T05:18:48;12.30;;;5.25;;
72621;SDS011;60665;53.506;9.582;2023-05-28T05:21:13;13.43;;;4.68;;
72621;SDS011;60665;53.506;9.582;2023-05-28T05:23:39;12.45;;;5.32;;
72621;SDS011;60665;53.506;9.582;2023-05-28T05:26:05;15.48;;;4.85;;
72621;SDS011;60665;53.506;9.582;2023-05-28T05:28:31;16.02;;;4.57;;
72621;SDS011;60665;53.506;9.582;2023-05-28T05:30:57;15.15;;;5.05;;
72621;SDS011;60665;53.506;9.582;2023-05-28T05:33:22;17.65;;;5.03;;
72621;SDS011;60665;53.506;9.582;2023-05-28T05:35:47;15.75;;;5.22;;
72621;SDS011;60665;53.506;9.582;2023-05-28T05:38:13;12.63;;;5.32;;
72621;SDS011;60665;53.506;9.582;2023-05-28T05:40:38;14.18;;;5.45;;
72621;SDS011;60665;53.506;9.582;2023-05-28T05:43:03;16.88;;;5.38;;
72621;SDS011;60665;53.506;9.582;2023-05-28T05:45:29;11.70;;;4.50;;
72621;SDS011;60665;53.506;9.582;2023-05-28T05:47:54;14.45;;;5.13;;
72621;SDS011;60665;53.506;9.582;2023-05-28T05:50:20;15.07;;;4.85;;
72621;SDS011;60665;53.506;9.582;2023-05-28T05:52:45;14.55;;;5.82;;
72621;SDS011;60665;53.506;9.582;2023-05-28T05:55:10;17.13;;;5.32;;
72621;SDS011;60665;53.506;9.582;2023-05-28T05:57:36;18.67;;;5.15;;
72621;SDS011;60665;53.506;9.582;2023-05-28T06:00:05;13.40;;;4.82;;
72621;SDS011;60665;53.506;9.582;2023-05-28T06:02:33;11.63;;;4.53;;
72621;SDS011;60665;53.506;9.582;2023-05-28T06:04:58;15.20;;;4.93;;
72621;SDS011;60665;53.506;9.582;2023-05-28T06:07:24;12.52;;;4.63;;
72621;SDS011;60665;53.506;9.582;2023-05-28T06:09:49;11.82;;;4.28;;
72621;SDS011;60665;53.506;9.582;2023-05-28T06:12:15;14.77;;;4.60;;
72621;SDS011;60665;53.506;9.582;2023-05-28T06:14:40;13.82;;;4.82;;
72621;SDS011;60665;53.506;9.582;2023-05-28T06:17:06;14.85;;;4.53;;
72621;SDS011;60665;53.506;9.582;2023-05-28T06:19:31;16.35;;;4.82;;
72621;SDS011;60665;53.506;9.582;2023-05-28T06:21:59;16.48;;;5.03;;
72621;SDS011;60665;53.506;9.582;2023-05-28T06:24:24;17.05;;;4.70;;
72621;SDS011;60665;53.506;9.582;2023-05-28T06:26:50;12.80;;;3.95;;
72621;SDS011;60665;53.506;9.582;2023-05-28T06:29:15;17.48;;;4.32;;
72621;SDS011;60665;53.506;9.582;2023-05-28T06:31:41;11.48;;;4.07;;
72621;SDS011;60665;53.506;9.582;2023-05-28T06:34:07;15.07;;;4.18;;
72621;SDS011;60665;53.506;9.582;2023-05-28T06:36:32;14.20;;;4.40;;
72621;SDS011;60665;53.506;9.582;2023-05-28T06:38:58;15.43;;;4.18;;
72621;SDS011;60665;53.506;9.582;2023-05-28T06:41:23;10.65;;;3.50;;
72621;SDS011;60665;53.506;9.582;2023-05-28T06:43:50;14.52;;;4.47;;
72621;SDS011;60665;53.506;9.582;2023-05-28T06:46:15;17.20;;;3.90;;
72621;SDS011;60665;53.506;9.582;2023-05-28T06:48:41;14.48;;;4.38;;
72621;SDS011;60665;53.506;9.582;2023-05-28T06:51:06;15.40;;;3.97;;
72621;SDS011;60665;53.506;9.582;2023-05-28T06:53:32;14.13;;;4.03;;
72621;SDS011;60665;53.506;9.582;2023-05-28T06:55:57;14.75;;;4.32;;
72621;SDS011;60665;53.506;9.582;2023-05-28T06:58:23;15.63;;;3.92;;
72621;SDS011;60665;53.506;9.582;2023-05-28T07:00:48;15.50;;;4.03;;
72621;SDS011;60665;53.506;9.582;2023-05-28T07:03:14;12.55;;;3.72;;
72621;SDS011;60665;53.506;9.582;2023-05-28T07:05:40;15.27;;;3.95;;
72621;SDS011;60665;53.506;9.582;2023-05-28T07:08:05;15.25;;;3.97;;
72621;SDS011;60665;53.506;9.582;2023-05-28T07:10:31;13.55;;;3.45;;
72621;SDS011;60665;53.506;9.582;2023-05-28T07:12:56;12.27;;;3.50;;
72621;SDS011;60665;53.506;9.582;2023-05-28T07:15:22;11.63;;;3.92;;
72621;SDS011;60665;53.506;9.582;2023-05-28T07:17:47;13.95;;;3.60;;
72621;SDS011;60665;53.506;9.582;2023-05-28T07:20:13;10.95;;;3.30;;
72621;SDS011;60665;53.506;9.582;2023-05-28T07:22:38;12.18;;;3.60;;
72621;SDS011;60665;53.506;9.582;2023-05-28T07:25:04;14.25;;;3.72;;
72621;SDS011;60665;53.506;9.582;2023-05-28T07:27:30;16.55;;;3.90;;
72621;SDS011;60665;53.506;9.582;2023-05-28T07:29:56;12.43;;;3.20;;
72621;SDS011;60665;53.506;9.582;2023-05-28T07:32:21;13.10;;;3.80;;
72621;SDS011;60665;53.506;9.582;2023-05-28T07:34:46;13.00;;;3.50;;
72621;SDS011;60665;53.506;9.582;2023-05-28T07:37:12;16.75;;;3.67;;
72621;SDS011;60665;53.506;9.582;2023-05-28T07:39:37;15.18;;;3.70;;
72621;SDS011;60665;53.506;9.582;2023-05-28T07:42:03;12.25;;;3.47;;
72621;SDS011;60665;53.506;9.582;2023-05-28T07:44:28;17.67;;;3.90;;
72621;SDS011;60665;53.506;9.582;2023-05-28T07:46:54;12.00;;;3.50;;
72621;SDS011;60665;53.506;9.582;2023-05-28T07:49:19;14.30;;;3.80;;
72621;SDS011;60665;53.506;9.582;2023-05-28T07:51:46;13.63;;;3.63;;
72621;SDS011;60665;53.506;9.582;2023-05-28T07:54:11;13.75;;;3.55;;
72621;SDS011;60665;53.506;9.582;2023-05-28T07:56:37;15.45;;;3.25;;
72621;SDS011;60665;53.506;9.582;2023-05-28T07:59:06;10.77;;;3.50;;
72621;SDS011;60665;53.506;9.582;2023-05-28T08:01:31;12.18;;;3.25;;
72621;SDS011;60665;53.506;9.582;2023-05-28T08:03:57;13.07;;;3.53;;
72621;SDS011;60665;53.506;9.582;2023-05-28T08:06:22;14.27;;;3.30;;
72621;SDS011;60665;53.506;9.582;2023-05-28T08:08:47;13.50;;;3.33;;
72621;SDS011;60665;53.506;9.582;2023-05-28T08:11:13;14.95;;;3.65;;
72621;SDS011;60665;53.506;9.582;2023-05-28T08:13:42;14.27;;;3.78;;
72621;SDS011;60665;53.506;9.582;2023-05-28T08:16:10;14.90;;;3.92;;
72621;SDS011;60665;53.506;9.582;2023-05-28T08:18:36;14.18;;;3.50;;
72621;SDS011;60665;53.506;9.582;2023-05-28T08:21:04;15.38;;;3.42;;
72621;SDS011;60665;53.506;9.582;2023-05-28T08:23:29;13.00;;;3.78;;
72621;SDS011;60665;53.506;9.582;2023-05-28T08:25:59;13.80;;;3.30;;
72621;SDS011;60665;53.506;9.582;2023-05-28T08:28:25;13.73;;;3.65;;
72621;SDS011;60665;53.506;9.582;2023-05-28T08:30:51;14.13;;;3.85;;
72621;SDS011;60665;53.506;9.582;2023-05-28T08:33:16;12.18;;;3.45;;
72621;SDS011;60665;53.506;9.582;2023-05-28T08:35:42;13.32;;;3.65;;
72621;SDS011;60665;53.506;9.582;2023-05-28T08:38:07;15.63;;;4.05;;
72621;SDS011;60665;53.506;9.582;2023-05-28T08:43:05;14.05;;;3.33;;
72621;SDS011;60665;53.506;9.582;2023-05-28T08:45:31;14.50;;;3.63;;
72621;SDS011;60665;53.506;9.582;2023-05-28T08:47:56;11.77;;;2.90;;
72621;SDS011;60665;53.506;9.582;2023-05-28T08:50:22;13.32;;;3.28;;
72621;SDS011;60665;53.506;9.582;2023-05-28T08:52:49;11.35;;;3.38;;
72621;SDS011;60665;53.506;9.582;2023-05-28T08:55:15;13.00;;;3.45;;
72621;SDS011;60665;53.506;9.582;2023-05-28T08:57:41;12.65;;;3.47;;
72621;SDS011;60665;53.506;9.582;2023-05-28T09:00:07;10.68;;;3.70;;
72621;SDS011;60665;53.506;9.582;2023-05-28T09:02:33;11.70;;;3.75;;
72621;SDS011;60665;53.506;9.582;2023-05-28T09:04:59;11.60;;;3.78;;
72621;SDS011;60665;53.506;9.582;2023-05-28T09:07:25;12.77;;;3.40;;
72621;SDS011;60665;53.506;9.582;2023-05-28T09:09:51;11.85;;;3.63;;
72621;SDS011;60665;53.506;9.582;2023-05-28T09:12:20;8.63;;;2.92;;
72621;SDS011;60665;53.506;9.582;2023-05-28T09:14:49;14.45;;;3.28;;
72621;SDS011;60665;53.506;9.582;2023-05-28T09:17:15;14.20;;;3.90;;
72621;SDS011;60665;53.506;9.582;2023-05-28T09:19:43;14.23;;;3.20;;
72621;SDS011;60665;53.506;9.582;2023-05-28T09:22:15;10.50;;;3.05;;
72621;SDS011;60665;53.506;9.582;2023-05-28T09:24:41;10.20;;;2.97;;
72621;SDS011;60665;53.506;9.582;2023-05-28T09:27:06;15.25;;;3.63;;
72621;SDS011;60665;53.506;9.582;2023-05-28T09:29:31;12.68;;;3.33;;
72621;SDS011;60665;53.506;9.582;2023-05-28T09:31:58;9.00;;;3.30;;
72621;SDS011;60665;53.506;9.582;2023-05-28T09:34:27;11.90;;;3.50;;
72621;SDS011;60665;53.506;9.582;2023-05-28T09:37:02;12.00;;;3.30;;
72621;SDS011;60665;53.506;9.582;2023-05-28T09:39:29;11.30;;;3.08;;
72621;SDS011;60665;53.506;9.582;2023-05-28T09:41:58;11.52;;;3.13;;
72621;SDS011;60665;53.506;9.582;2023-05-28T09:44:49;12.32;;;3.33;;
72621;SDS011;60665;53.506;9.582;2023-05-28T09:47:15;11.38;;;3.25;;
72621;SDS011;60665;53.506;9.582;2023-05-28T09:49:42;10.05;;;3.22;;
72621;SDS011;60665;53.506;9.582;2023-05-28T09:52:17;12.35;;;3.78;;
72621;SDS011;60665;53.506;9.582;2023-05-28T09:54:49;11.43;;;3.50;;
72621;SDS011;60665;53.506;9.582;2023-05-28T09:57:29;11.90;;;3.55;;
72621;SDS011;60665;53.506;9.582;2023-05-28T09:59:55;12.02;;;3.25;;
72621;SDS011;60665;53.506;9.582;2023-05-28T10:02:28;11.70;;;3.20;;
72621;SDS011;60665;53.506;9.582;2023-05-28T10:04:58;10.50;;;3.58;;
72621;SDS011;60665;53.506;9.582;2023-05-28T10:07:26;12.93;;;3.88;;
72621;SDS011;60665;53.506;9.582;2023-05-28T10:09:53;10.77;;;3.15;;
72621;SDS011;60665;53.506;9.582;2023-05-28T10:12:21;10.48;;;3.25;;
72621;SDS011;60665;53.506;9.582;2023-05-28T10:14:49;10.60;;;3.20;;
72621;SDS011;60665;53.506;9.582;2023-05-28T10:17:15;8.48;;;3.33;;
72621;SDS011;60665;53.506;9.582;2023-05-28T10:19:42;11.48;;;3.83;;
72621;SDS011;60665;53.506;9.582;2023-05-28T10:22:10;9.88;;;3.03;;
72621;SDS011;60665;53.506;9.582;2023-05-28T10:24:36;11.68;;;3.80;;
72621;SDS011;60665;53.506;9.582;2023-05-28T10:27:04;10.00;;;3.38;;
72621;SDS011;60665;53.506;9.582;2023-05-28T10:29:37;12.95;;;3.30;;
72621;SDS011;60665;53.506;9.582;2023-05-28T10:32:16;11.70;;;3.58;;
72621;SDS011;60665;53.506;9.582;2023-05-28T10:34:41;12.48;;;3.65;;
72621;SDS011;60665;53.506;9.582;2023-05-28T10:37:08;14.63;;;3.58;;
72621;SDS011;60665;53.506;9.582;2023-05-28T10:39:37;10.98;;;3.55;;
72621;SDS011;60665;53.506;9.582;2023-05-28T10:42:07;12.68;;;3.78;;
72621;SDS011;60665;53.506;9.582;2023-05-28T10:45:07;9.20;;;3.25;;
72621;SDS011;60665;53.506;9.582;2023-05-28T10:50:17;8.45;;;3.58;;
72621;SDS011;60665;53.506;9.582;2023-05-28T10:53:29;13.55;;;3.72;;
72621;SDS011;60665;53.506;9.582;2023-05-28T10:55:49;12.10;;;3.60;;
72621;SDS011;60665;53.506;9.582;2023-05-28T10:58:22;11.68;;;4.15;;
72621;SDS011;60665;53.506;9.582;2023-05-28T11:00:50;10.07;;;3.70;;
72621;SDS011;60665;53.506;9.582;2023-05-28T11:03:16;9.85;;;3.08;;
72621;SDS011;60665;53.506;9.582;2023-05-28T11:05:41;10.00;;;3.42;;
72621;SDS011;60665;53.506;9.582;2023-05-28T11:08:07;10.52;;;3.55;;
72621;SDS011;60665;53.506;9.582;2023-05-28T11:10:33;14.10;;;3.90;;
72621;SDS011;60665;53.506;9.582;2023-05-28T11:12:58;11.95;;;3.70;;
72621;SDS011;60665;53.506;9.582;2023-05-28T11:15:24;11.25;;;3.55;;
72621;SDS011;60665;53.506;9.582;2023-05-28T11:17:50;10.68;;;3.25;;
72621;SDS011;60665;53.506;9.582;2023-05-28T11:20:22;12.18;;;4.35;;
72621;SDS011;60665;53.506;9.582;2023-05-28T11:22:49;11.50;;;3.40;;
72621;SDS011;60665;53.506;9.582;2023-05-28T11:25:16;8.93;;;3.45;;
72621;SDS011;60665;53.506;9.582;2023-05-28T11:27:41;8.95;;;3.35;;
72621;SDS011;60665;53.506;9.582;2023-05-28T11:32:33;10.88;;;3.88;;
72621;SDS011;60665;53.506;9.582;2023-05-28T11:34:59;11.77;;;3.90;;
72621;SDS011;60665;53.506;9.582;2023-05-28T11:39:54;8.55;;;3.80;;
72621;SDS011;60665;53.506;9.582;2023-05-28T11:42:21;11.05;;;3.67;;
72621;SDS011;60665;53.506;9.582;2023-05-28T11:44:47;14.48;;;4.28;;
72621;SDS011;60665;53.506;9.582;2023-05-28T11:47:14;11.55;;;3.72;;
72621;SDS011;60665;53.506;9.582;2023-05-28T11:49:40;9.45;;;3.45;;
72621;SDS011;60665;53.506;9.582;2023-05-28T11:52:09;10.95;;;3.88;;
72621;SDS011;60665;53.506;9.582;2023-05-28T11:54:42;10.48;;;3.58;;
72621;SDS011;60665;53.506;9.582;2023-05-28T11:57:10;8.60;;;3.53;;
72621;SDS011;60665;53.506;9.582;2023-05-28T11:59:35;9.52;;;3.63;;
72621;SDS011;60665;53.506;9.582;2023-05-28T12:02:11;9.30;;;3.20;;
72621;SDS011;60665;53.506;9.582;2023-05-28T12:04:38;10.10;;;3.70;;
72621;SDS011;60665;53.506;9.582;2023-05-28T12:07:04;11.13;;;3.83;;
72621;SDS011;60665;53.506;9.582;2023-05-28T12:09:29;9.00;;;3.40;;
72621;SDS011;60665;53.506;9.582;2023-05-28T12:12:04;11.63;;;3.15;;
72621;SDS011;60665;53.506;9.582;2023-05-28T12:14:39;7.72;;;3.00;;
72621;SDS011;60665;53.506;9.582;2023-05-28T12:17:07;10.57;;;3.33;;
72621;SDS011;60665;53.506;9.582;2023-05-28T12:19:34;9.60;;;3.20;;
72621;SDS011;60665;53.506;9.582;2023-05-28T12:22:00;8.30;;;3.10;;
72621;SDS011;60665;53.506;9.582;2023-05-28T12:24:26;12.07;;;3.30;;
72621;SDS011;60665;53.506;9.582;2023-05-28T12:26:53;8.65;;;2.88;;
72621;SDS011;60665;53.506;9.582;2023-05-28T12:29:18;8.52;;;3.17;;
72621;SDS011;60665;53.506;9.582;2023-05-28T12:31:43;8.40;;;3.40;;
72621;SDS011;60665;53.506;9.582;2023-05-28T12:34:09;10.20;;;3.30;;
72621;SDS011;60665;53.506;9.582;2023-05-28T12:36:34;8.48;;;3.45;;
72621;SDS011;60665;53.506;9.582;2023-05-28T12:39:01;10.80;;;3.53;;
72621;SDS011;60665;53.506;9.582;2023-05-28T12:41:26;9.32;;;3.13;;
72621;SDS011;60665;53.506;9.582;2023-05-28T12:43:52;7.93;;;2.97;;
72621;SDS011;60665;53.506;9.582;2023-05-28T12:46:17;7.63;;;2.92;;
72621;SDS011;60665;53.506;9.582;2023-05-28T12:48:43;8.63;;;3.20;;
72621;SDS011;60665;53.506;9.582;2023-05-28T12:51:08;10.98;;;3.25;;
72621;SDS011;60665;53.506;9.582;2023-05-28T12:53:33;7.90;;;2.50;;
72621;SDS011;60665;53.506;9.582;2023-05-28T12:55:59;8.93;;;3.03;;
72621;SDS011;60665;53.506;9.582;2023-05-28T12:58:24;10.13;;;3.10;;
72621;SDS011;60665;53.506;9.582;2023-05-28T13:00:50;8.63;;;2.85;;
72621;SDS011;60665;53.506;9.582;2023-05-28T13:03:15;7.22;;;2.72;;
72621;SDS011;60665;53.506;9.582;2023-05-28T13:05:41;8.07;;;2.65;;
72621;SDS011;60665;53.506;9.582;2023-05-28T13:08:06;8.07;;;2.65;;
72621;SDS011;60665;53.506;9.582;2023-05-28T13:10:31;7.00;;;2.95;;
72621;SDS011;60665;53.506;9.582;2023-05-28T13:12:57;8.43;;;2.67;;
72621;SDS011;60665;53.506;9.582;2023-05-28T13:15:23;8.55;;;3.05;;
72621;SDS011;60665;53.506;9.582;2023-05-28T13:17:48;8.45;;;2.70;;
72621;SDS011;60665;53.506;9.582;2023-05-28T13:20:14;9.48;;;2.92;;
72621;SDS011;60665;53.506;9.582;2023-05-28T13:22:39;8.57;;;2.60;;
72621;SDS011;60665;53.506;9.582;2023-05-28T13:25:06;5.72;;;2.53;;
72621;SDS011;60665;53.506;9.582;2023-05-28T13:27:33;6.38;;;2.17;;
72621;SDS011;60665;53.506;9.582;2023-05-28T13:29:59;5.88;;;2.25;;
72621;SDS011;60665;53.506;9.582;2023-05-28T13:32:25;8.30;;;2.75;;
72621;SDS011;60665;53.506;9.582;2023-05-28T13:34:50;6.28;;;2.20;;
72621;SDS011;60665;53.506;9.582;2023-05-28T13:37:16;6.93;;;2.40;;
72621;SDS011;60665;53.506;9.582;2023-05-28T13:39:41;5.78;;;2.38;;
72621;SDS011;60665;53.506;9.582;2023-05-28T13:42:07;6.65;;;2.50;;
72621;SDS011;60665;53.506;9.582;2023-05-28T13:44:33;6.95;;;2.30;;
72621;SDS011;60665;53.506;9.582;2023-05-28T13:46:59;7.30;;;2.33;;
72621;SDS011;60665;53.506;9.582;2023-05-28T13:49:24;6.30;;;2.30;;
72621;SDS011;60665;53.506;9.582;2023-05-28T13:51:50;6.07;;;2.00;;
72621;SDS011;60665;53.506;9.582;2023-05-28T13:54:16;6.57;;;2.70;;
72621;SDS011;60665;53.506;9.582;2023-05-28T13:56:41;7.20;;;3.60;;
72621;SDS011;60665;53.506;9.582;2023-05-28T13:59:07;10.82;;;4.97;;
72621;SDS011;60665;53.506;9.582;2023-05-28T14:01:33;6.13;;;3.13;;
72621;SDS011;60665;53.506;9.582;2023-05-28T14:03:59;5.70;;;2.38;;
72621;SDS011;60665;53.506;9.582;2023-05-28T14:06:25;7.85;;;2.38;;
72621;SDS011;60665;53.506;9.582;2023-05-28T14:08:50;7.45;;;2.35;;
72621;SDS011;60665;53.506;9.582;2023-05-28T14:11:15;7.05;;;2.40;;
72621;SDS011;60665;53.506;9.582;2023-05-28T14:13:42;4.78;;;2.03;;
72621;SDS011;60665;53.506;9.582;2023-05-28T14:16:08;6.70;;;2.45;;
72621;SDS011;60665;53.506;9.582;2023-05-28T14:18:33;4.32;;;1.90;;
72621;SDS011;60665;53.506;9.582;2023-05-28T14:20:59;4.25;;;2.00;;
72621;SDS011;60665;53.506;9.582;2023-05-28T14:23:24;4.03;;;1.77;;
72621;SDS011;60665;53.506;9.582;2023-05-28T14:25:50;4.03;;;1.85;;
72621;SDS011;60665;53.506;9.582;2023-05-28T14:28:15;6.68;;;2.15;;
72621;SDS011;60665;53.506;9.582;2023-05-28T14:30:40;6.85;;;2.30;;
72621;SDS011;60665;53.506;9.582;2023-05-28T14:33:06;5.15;;;2.05;;
72621;SDS011;60665;53.506;9.582;2023-05-28T14:35:32;6.13;;;1.92;;
72621;SDS011;60665;53.506;9.582;2023-05-28T14:37:58;4.90;;;1.90;;
72621;SDS011;60665;53.506;9.582;2023-05-28T14:40:23;5.88;;;1.90;;
72621;SDS011;60665;53.506;9.582;2023-05-28T14:42:48;5.07;;;2.10;;
72621;SDS011;60665;53.506;9.582;2023-05-28T14:45:14;4.80;;;2.10;;
72621;SDS011;60665;53.506;9.582;2023-05-28T14:47:40;5.68;;;2.17;;